Time;durP1;ratioP1;P1;durP2;ratioP2;P2;SDS_P1;SDS_P2;PMS_P1;PMS_P2;Temp;Humidity;BMP_temperature;BMP_pressure;BME280_temperature;BME280_humidity;BME280_pressure;Samples;Min_cycle;Max_cycle;Signal;HPM_P1;HPM_P2
2023/01/20 04:50:29;;;;;;;31.17;24.03;;;12.20;95.70;;;;;;4590769;19;20472;-30
2023/01/20 04:52:01;;;;;;;32.50;25.33;;;12.20;95.60;;;;;;4592792;19;20038;-31
2023/01/20 04:53:33;;;;;;;33.85;24.85;;;12.30;95.50;;;;;;4593308;19;20239;-32
2023/01/20 04:55:04;;;;;;;;;;;12.30;95.50;;;;;;4594222;19;20021;-30
2023/01/20 04:56:36;;;;;;;32.13;24.98;;;12.30;95.50;;;;;;4593202;19;19952;-31
2023/01/20 04:58:11;;;;;;;35.80;25.52;;;12.30;95.50;;;;;;4592480;19;20051;-30
2023/01/20 04:59:43;;;;;;;29.77;22.57;;;12.30;95.50;;;;;;4590798;19;20022;-30
2023/01/20 05:01:14;;;;;;;33.05;25.52;;;12.40;95.40;;;;;;4591504;19;20056;-32
2023/01/20 05:02:46;;;;;;;29.60;23.42;;;12.40;95.40;;;;;;4591587;19;20013;-32
2023/01/20 05:04:17;;;;;;;31.92;24.10;;;12.40;95.30;;;;;;4590391;19;20073;-32
2023/01/20 05:05:55;;;;;;;29.40;23.15;;;12.40;95.30;;;;;;4593820;19;20057;-32
2023/01/20 05:07:26;;;;;;;32.20;24.23;;;12.40;95.20;;;;;;4594032;19;20017;-31
2023/01/20 05:08:57;;;;;;;31.10;24.73;;;12.40;95.30;;;;;;4593569;19;20014;-31
2023/01/20 05:10:30;;;;;;;30.58;24.23;;;12.40;95.20;;;;;;4593249;19;20018;-31
2023/01/20 05:12:01;;;;;;;33.30;24.83;;;12.40;95.20;;;;;;4591990;19;20028;-31
2023/01/20 05:13:38;;;;;;;31.33;24.50;;;12.40;95.20;;;;;;4592231;19;20037;-32
2023/01/20 05:15:09;;;;;;;32.93;25.77;;;12.40;95.20;;;;;;4592186;19;20010;-31
2023/01/20 05:16:42;;;;;;;31.37;24.43;;;12.40;95.20;;;;;;4591901;19;20356;-32
2023/01/20 05:18:14;;;;;;;31.40;25.03;;;12.40;95.20;;;;;;4590068;19;20025;-33
2023/01/20 05:19:45;;;;;;;28.35;23.75;;;12.40;95.20;;;;;;4590845;19;20021;-32
2023/01/20 05:21:16;;;;;;;34.25;26.55;;;12.40;95.30;;;;;;4591372;19;20421;-32
2023/01/20 05:22:48;;;;;;;30.73;25.05;;;12.40;95.50;;;;;;4592988;19;20081;-32
2023/01/20 05:24:20;;;;;;;32.33;25.00;;;12.40;95.30;;;;;;4591783;19;20082;-32
2023/01/20 05:25:52;;;;;;;31.20;24.05;;;12.30;95.20;;;;;;4592964;19;20033;-35
2023/01/20 05:27:23;;;;;;;33.57;24.70;;;12.30;95.10;;;;;;4592683;19;20477;-32
2023/01/20 05:28:56;;;;;;;32.57;24.30;;;12.30;95.20;;;;;;4589735;19;20081;-32
2023/01/20 05:30:28;;;;;;;31.63;24.53;;;12.30;95.20;;;;;;4591030;19;20007;-34
2023/01/20 05:31:59;;;;;;;30.67;24.23;;;12.30;95.10;;;;;;4590424;19;20371;-37
2023/01/20 05:33:31;;;;;;;32.50;24.45;;;12.30;95.10;;;;;;4590898;19;20010;-32
2023/01/20 05:35:04;;;;;;;31.93;23.70;;;12.30;95.10;;;;;;4589972;19;20017;-34
2023/01/20 05:36:36;;;;;;;29.53;23.40;;;12.30;95.20;;;;;;4588180;19;20625;-33
2023/01/20 05:38:08;;;;;;;;;;;12.40;95.10;;;;;;4591300;19;20014;-33
2023/01/20 05:39:39;;;;;;;29.73;23.30;;;12.40;95.20;;;;;;4592017;19;19930;-36
2023/01/20 05:41:11;;;;;;;30.30;23.13;;;12.40;95.10;;;;;;4590964;19;20341;-33
2023/01/20 05:42:42;;;;;;;28.88;22.77;;;12.40;95.10;;;;;;4591300;19;20483;-33
2023/01/20 05:44:14;;;;;;;38.17;26.98;;;12.30;95.10;;;;;;4590525;19;20033;-33
2023/01/20 05:45:46;;;;;;;43.80;32.53;;;12.30;95.10;;;;;;4590120;19;20022;-32
2023/01/20 05:47:17;;;;;;;33.83;24.15;;;12.30;95.10;;;;;;4592154;19;20011;-33
2023/01/20 05:48:48;;;;;;;43.03;27.70;;;12.30;95.00;;;;;;4591459;19;20054;-29
2023/01/20 05:52:06;;;;;;;34.80;26.30;;;12.40;94.90;;;;;;4591670;19;20003;-30
2023/01/20 05:53:38;;;;;;;;;;;12.40;94.80;;;;;;4592150;19;20011;-31
2023/01/20 05:55:09;;;;;;;47.07;29.13;;;12.50;94.80;;;;;;4591004;19;19956;-35
2023/01/20 05:56:40;;;;;;;41.28;29.20;;;12.50;94.70;;;;;;4590727;19;20128;-31
2023/01/20 05:58:11;;;;;;;39.03;28.80;;;12.60;94.70;;;;;;4591353;19;20014;-32
2023/01/20 05:59:46;;;;;;;51.65;31.90;;;12.70;94.70;;;;;;4591747;19;20011;-33
2023/01/20 06:01:17;;;;;;;142.50;86.23;;;12.70;94.60;;;;;;4591819;19;20472;-33
2023/01/20 06:02:50;;;;;;;85.43;53.93;;;12.70;94.50;;;;;;4589254;19;20029;-31
2023/01/20 06:04:21;;;;;;;;;;;12.70;94.50;;;;;;4590913;19;20010;-30
2023/01/20 06:05:59;;;;;;;111.80;56.43;;;12.70;94.50;;;;;;4590197;19;19918;-32
2023/01/20 06:07:31;;;;;;;41.37;29.20;;;12.70;94.60;;;;;;4593041;19;20018;-32
2023/01/20 06:09:05;;;;;;;39.87;30.03;;;12.70;94.50;;;;;;4592820;19;20399;-34
2023/01/20 06:10:37;;;;;;;40.70;31.20;;;12.80;94.50;;;;;;4592578;19;20010;-33
2023/01/20 06:12:10;;;;;;;80.33;49.13;;;12.80;94.50;;;;;;4590447;19;20022;-33
2023/01/20 06:13:42;;;;;;;38.90;30.20;;;12.80;94.40;;;;;;4591148;19;20007;-31
2023/01/20 06:15:13;;;;;;;;;;;12.80;94.30;;;;;;4591887;19;20007;-34
2023/01/20 06:16:44;;;;;;;35.70;26.73;;;12.80;94.30;;;;;;4590495;19;20419;-33
2023/01/20 06:18:17;;;;;;;31.27;24.70;;;12.80;94.20;;;;;;4589694;19;20352;-33
2023/01/20 06:19:48;;;;;;;33.65;25.10;;;12.80;94.20;;;;;;4589311;19;20492;-33
2023/01/20 06:21:19;;;;;;;32.60;25.73;;;12.80;94.20;;;;;;4591233;19;20546;-36
2023/01/20 06:22:54;;;;;;;35.27;26.40;;;12.80;94.20;;;;;;4592918;19;20361;-35
2023/01/20 06:24:27;;;;;;;35.07;25.00;;;12.80;94.40;;;;;;4589208;19;20034;-35
2023/01/20 06:26:04;;;;;;;33.00;24.30;;;12.70;94.20;;;;;;4590990;19;20022;-34
2023/01/20 06:27:36;;;;;;;34.90;25.10;;;12.70;94.20;;;;;;4591814;19;20034;-36
2023/01/20 06:29:07;;;;;;;;;;;12.70;94.20;;;;;;4590649;19;20014;-34
2023/01/20 06:30:41;;;;;;;34.28;24.20;;;12.70;94.20;;;;;;4591613;19;19956;-33
2023/01/20 06:32:12;;;;;;;32.57;24.33;;;12.60;94.30;;;;;;4590030;19;20014;-34
2023/01/20 06:33:44;;;;;;;31.08;23.90;;;12.60;94.40;;;;;;4589736;19;20458;-33
2023/01/20 06:35:15;;;;;;;31.08;23.48;;;12.60;94.30;;;;;;4591556;19;20023;-32
2023/01/20 06:36:47;;;;;;;30.90;24.80;;;12.60;94.40;;;;;;4589784;19;20019;-32
2023/01/20 06:38:18;;;;;;;30.02;23.17;;;12.60;94.40;;;;;;4590394;19;20472;-32
2023/01/20 06:39:49;;;;;;;29.52;23.00;;;12.60;94.50;;;;;;4592479;19;20033;-32
2023/01/20 06:41:21;;;;;;;27.17;21.58;;;12.60;94.60;;;;;;4590293;19;20039;-32
2023/01/20 06:42:52;;;;;;;29.02;23.13;;;12.60;94.50;;;;;;4588924;19;20374;-32
2023/01/20 06:44:24;;;;;;;28.83;22.63;;;12.50;94.50;;;;;;4588532;19;20373;-32
2023/01/20 06:46:02;;;;;;;28.92;23.10;;;12.50;94.50;;;;;;4590418;19;20097;-32
2023/01/20 06:47:34;;;;;;;29.70;23.27;;;12.50;94.50;;;;;;4589611;19;20011;-32
2023/01/20 06:49:05;;;;;;;28.63;22.42;;;12.50;94.50;;;;;;4589196;19;20015;-30
2023/01/20 06:50:37;;;;;;;32.42;25.27;;;12.50;94.50;;;;;;4589868;19;20021;-32
2023/01/20 06:52:08;;;;;;;27.88;23.58;;;12.50;94.40;;;;;;4591425;19;20014;-32
2023/01/20 06:53:39;;;;;;;30.97;24.27;;;12.50;94.40;;;;;;4590227;19;20027;-32
2023/01/20 06:55:11;;;;;;;33.35;25.42;;;12.50;94.40;;;;;;4589800;19;20362;-32
2023/01/20 06:56:42;;;;;;;;;;;12.50;94.40;;;;;;4592010;19;20018;-32
2023/01/20 06:58:14;;;;;;;32.30;23.92;;;12.50;94.40;;;;;;4591333;19;19923;-32
2023/01/20 06:59:46;;;;;;;37.97;28.53;;;12.50;94.40;;;;;;4590233;19;20011;-32
2023/01/20 07:01:22;;;;;;;36.30;28.10;;;12.50;94.40;;;;;;4592685;19;20013;-32
2023/01/20 07:02:54;;;;;;;36.97;26.53;;;12.50;94.40;;;;;;4589845;19;20022;-32
2023/01/20 07:04:25;;;;;;;32.05;24.23;;;12.50;94.40;;;;;;4590765;19;20031;-32
2023/01/20 07:06:02;;;;;;;32.77;25.17;;;12.70;94.30;;;;;;4589129;19;20012;-32
2023/01/20 07:07:34;;;;;;;32.47;25.33;;;12.70;94.50;;;;;;4589501;19;20019;-32
2023/01/20 07:09:09;;;;;;;34.60;29.13;;;12.60;94.60;;;;;;4590006;19;20026;-32
2023/01/20 07:10:41;;;;;;;39.90;32.00;;;12.50;94.60;;;;;;4589805;19;20013;-32
2023/01/20 07:12:13;;;;;;;43.58;35.20;;;12.50;94.60;;;;;;4590372;19;20052;-32
2023/01/20 07:13:46;;;;;;;37.60;31.10;;;12.50;94.50;;;;;;4590423;19;20010;-32
2023/01/20 07:15:17;;;;;;;35.22;26.55;;;12.50;94.60;;;;;;4589170;19;20476;-32
2023/01/20 07:16:49;;;;;;;32.90;24.87;;;12.50;94.60;;;;;;4589527;19;20014;-32
2023/01/20 07:18:21;;;;;;;30.58;24.08;;;12.50;94.70;;;;;;4589189;19;20010;-32
2023/01/20 07:19:54;;;;;;;34.63;25.10;;;12.50;94.70;;;;;;4589330;19;20085;-33
2023/01/20 07:21:28;;;;;;;31.67;24.17;;;12.40;94.70;;;;;;4590609;19;20011;-33
2023/01/20 07:23:00;;;;;;;33.00;24.90;;;12.50;94.70;;;;;;4588544;19;20011;-32
2023/01/20 07:24:32;;;;;;;34.57;25.60;;;12.40;94.70;;;;;;4588294;19;20469;-32
2023/01/20 07:26:08;;;;;;;31.85;24.38;;;12.40;94.70;;;;;;4589789;19;20466;-32
2023/01/20 07:27:41;;;;;;;36.63;26.90;;;12.40;94.60;;;;;;4589225;19;20007;-33
2023/01/20 07:29:14;;;;;;;34.07;26.73;;;12.40;94.70;;;;;;4588678;19;20381;-32
2023/01/20 07:30:45;;;;;;;31.50;25.25;;;12.40;94.60;;;;;;4590589;19;20013;-32
2023/01/20 07:32:17;;;;;;;26.80;21.48;;;12.40;94.60;;;;;;4589424;19;20037;-32
2023/01/20 07:33:48;;;;;;;31.27;23.45;;;12.50;94.70;;;;;;4591101;19;20023;-32
2023/01/20 07:35:20;;;;;;;30.63;23.40;;;12.50;94.70;;;;;;4591278;19;20006;-34
2023/01/20 07:36:52;;;;;;;29.38;21.42;;;12.50;94.70;;;;;;4589259;19;20407;-34
2023/01/20 07:38:38;;;;;;;31.33;22.80;;;12.50;94.80;;;;;;4591231;19;20017;-36
2023/01/20 07:40:10;;;;;;;28.73;22.23;;;12.50;94.80;;;;;;4591438;19;20017;-32
2023/01/20 07:41:44;;;;;;;28.90;22.33;;;12.50;94.90;;;;;;4590842;19;20018;-33
2023/01/20 07:43:15;;;;;;;26.37;20.47;;;12.50;94.80;;;;;;4591045;19;20035;-34
2023/01/20 07:44:47;;;;;;;30.50;23.83;;;12.50;94.80;;;;;;4590301;19;20011;-32
2023/01/20 07:46:19;;;;;;;33.38;24.75;;;12.50;94.80;;;;;;4590016;19;20042;-35
2023/01/20 07:47:54;;;;;;;28.77;22.33;;;12.50;94.80;;;;;;4589647;19;20383;-33
2023/01/20 07:49:26;;;;;;;32.27;24.50;;;12.50;94.80;;;;;;4589085;19;20102;-32
2023/01/20 07:51:04;;;;;;;30.83;23.10;;;12.40;94.80;;;;;;4588848;19;20384;-32
2023/01/20 07:52:36;;;;;;;26.93;21.70;;;12.40;94.80;;;;;;4590995;19;20010;-32
2023/01/20 07:57:39;;;;;;;27.30;21.10;;;12.40;94.80;;;;;;4594883;19;20026;-32
2023/01/20 07:59:12;;;;;;;25.97;18.90;;;12.30;94.70;;;;;;4594689;19;20021;-32
2023/01/20 08:00:47;;;;;;;27.55;21.05;;;12.30;94.70;;;;;;4593240;19;20382;-32
2023/01/20 08:02:19;;;;;;;27.10;20.43;;;12.40;94.70;;;;;;4593710;19;20018;-32
2023/01/20 08:03:51;;;;;;;25.90;20.50;;;12.40;94.70;;;;;;4594426;19;20018;-32
2023/01/20 08:05:23;;;;;;;26.25;19.80;;;12.40;94.70;;;;;;4593044;19;20488;-32
2023/01/20 08:06:54;;;;;;;26.63;20.25;;;12.30;94.70;;;;;;4594066;19;20034;-32
2023/01/20 08:08:26;;;;;;;28.17;21.05;;;12.30;94.70;;;;;;4595462;19;20018;-32
2023/01/20 08:09:57;;;;;;;29.50;22.95;;;12.40;94.70;;;;;;4596148;19;20017;-33
2023/01/20 08:11:30;;;;;;;28.48;23.52;;;12.40;94.80;;;;;;4595148;19;20019;-32
2023/01/20 08:13:04;;;;;;;31.57;24.57;;;12.40;94.80;;;;;;4595397;19;20393;-31
2023/01/20 08:14:36;;;;;;;;;;;12.30;94.80;;;;;;4594839;19;20514;-32
2023/01/20 08:16:08;;;;;;;29.60;23.10;;;12.30;94.80;;;;;;4594569;19;19943;-34
2023/01/20 08:17:39;;;;;;;27.93;22.17;;;12.30;94.80;;;;;;4595793;19;20070;-35
2023/01/20 08:19:11;;;;;;;28.03;21.47;;;12.30;94.70;;;;;;4593748;19;20010;-33
2023/01/20 08:20:42;;;;;;;28.50;21.80;;;12.30;94.80;;;;;;4595132;19;20018;-36
2023/01/20 08:22:14;;;;;;;26.85;21.38;;;12.30;95.00;;;;;;4595288;19;20389;-35
2023/01/20 08:23:45;;;;;;;28.70;21.75;;;12.30;95.00;;;;;;4594128;19;20023;-35
2023/01/20 08:25:16;;;;;;;28.33;22.02;;;12.30;95.10;;;;;;4592569;19;20018;-35
2023/01/20 08:26:49;;;;;;;30.00;22.60;;;12.30;95.10;;;;;;4593789;19;20011;-36
2023/01/20 08:28:21;;;;;;;28.23;23.10;;;12.30;95.20;;;;;;4595433;19;20078;-35
2023/01/20 08:29:54;;;;;;;30.23;22.90;;;12.30;95.30;;;;;;4594770;19;20022;-34
2023/01/20 08:31:26;;;;;;;30.13;23.53;;;12.30;95.30;;;;;;4593643;19;20011;-34
2023/01/20 08:32:57;;;;;;;28.90;22.00;;;12.30;95.20;;;;;;4594630;19;20026;-34
2023/01/20 08:34:28;;;;;;;29.98;22.75;;;12.30;95.10;;;;;;4594606;19;20464;-39
2023/01/20 08:36:08;;;;;;;27.90;21.83;;;12.30;95.10;;;;;;4595292;19;20028;-35
2023/01/20 08:37:39;;;;;;;31.90;25.00;;;12.30;94.90;;;;;;4592414;19;20101;-35
2023/01/20 08:39:16;;;;;;;28.73;22.70;;;12.30;94.90;;;;;;4594634;19;20018;-36
2023/01/20 08:40:48;;;;;;;35.97;28.40;;;12.30;94.80;;;;;;4592948;19;20054;-32
2023/01/20 08:42:19;;;;;;;33.38;25.35;;;12.30;94.80;;;;;;4593668;19;20432;-37
2023/01/20 08:43:50;;;;;;;33.88;26.50;;;12.30;94.90;;;;;;4593413;19;20022;-33
2023/01/20 08:45:24;;;;;;;36.50;28.10;;;12.30;94.90;;;;;;4592660;19;20342;-33
2023/01/20 08:46:58;;;;;;;30.60;23.03;;;12.30;95.00;;;;;;4594517;19;20027;-35
2023/01/20 08:48:29;;;;;;;33.03;23.97;;;12.30;95.00;;;;;;4593584;19;20575;-33
2023/01/20 08:50:01;;;;;;;;;;;12.30;95.10;;;;;;4593685;19;20343;-35
2023/01/20 08:51:32;;;;;;;34.00;24.43;;;12.30;95.40;;;;;;4592281;19;20314;-34
2023/01/20 08:53:04;;;;;;;30.83;23.53;;;12.30;95.30;;;;;;4594046;19;20038;-35
2023/01/20 08:54:36;;;;;;;;;;;12.30;95.30;;;;;;4594534;19;20023;-34
2023/01/20 08:56:09;;;;;;;35.17;27.90;;;12.30;95.40;;;;;;4592383;19;19919;-33
2023/01/20 08:59:26;;;;;;;30.90;24.27;;;12.30;95.20;;;;;;4594213;19;20086;-32
2023/01/20 09:00:58;;;;;;;30.23;24.50;;;12.30;95.20;;;;;;4591326;19;20499;-34
2023/01/20 09:02:30;;;;;;;39.25;33.38;;;12.30;95.20;;;;;;4590733;19;20354;-33
2023/01/20 09:04:02;;;;;;;32.93;28.23;;;12.30;95.20;;;;;;4590729;19;20070;-34
2023/01/20 09:05:35;;;;;;;34.17;27.07;;;12.20;95.20;;;;;;4589865;19;20492;-38
2023/01/20 09:07:26;;;;;;;30.67;25.40;;;12.20;95.40;;;;;;4592556;19;20006;-34
2023/01/20 09:08:58;;;;;;;31.37;24.53;;;12.30;95.30;;;;;;4591155;19;20353;-33
2023/01/20 09:10:32;;;;;;;30.33;22.92;;;12.20;95.30;;;;;;4592558;19;20021;-34
2023/01/20 09:12:04;;;;;;;31.53;24.40;;;12.30;95.40;;;;;;4593022;19;20017;-34
2023/01/20 09:13:36;;;;;;;34.67;25.50;;;12.30;95.40;;;;;;4591337;19;20014;-33
2023/01/20 09:15:09;;;;;;;30.20;23.67;;;12.30;95.50;;;;;;4591909;19;20019;-34
2023/01/20 09:16:43;;;;;;;32.70;24.70;;;12.30;95.60;;;;;;4593029;19;20489;-36
2023/01/20 09:18:16;;;;;;;29.50;22.70;;;12.30;95.50;;;;;;4592692;19;20006;-32
2023/01/20 09:19:47;;;;;;;34.30;24.77;;;12.30;95.60;;;;;;4591186;19;20022;-34
2023/01/20 09:21:19;;;;;;;31.67;23.33;;;12.30;95.70;;;;;;4591064;19;20082;-32
2023/01/20 09:22:50;;;;;;;29.73;22.98;;;12.30;95.60;;;;;;4591905;19;20013;-37
2023/01/20 09:24:22;;;;;;;30.90;22.90;;;12.30;95.40;;;;;;4592103;19;20011;-35
2023/01/20 09:25:54;;;;;;;33.80;24.30;;;12.30;95.40;;;;;;4589903;19;20022;-33
2023/01/20 09:27:27;;;;;;;32.17;24.50;;;12.30;95.40;;;;;;4591684;19;20014;-31
2023/01/20 09:29:07;;;;;;;33.45;25.70;;;12.30;95.40;;;;;;4591232;19;20040;-36
2023/01/20 09:30:41;;;;;;;35.33;25.63;;;12.30;95.30;;;;;;4592005;19;20007;-33
2023/01/20 09:32:14;;;;;;;31.90;23.97;;;12.30;95.40;;;;;;4591596;19;20460;-33
2023/01/20 09:33:45;;;;;;;36.83;27.80;;;12.30;95.30;;;;;;4591135;19;20479;-34
2023/01/20 09:35:17;;;;;;;35.20;26.95;;;12.30;95.20;;;;;;4591436;19;20010;-34
2023/01/20 09:36:52;;;;;;;38.33;30.27;;;12.30;95.20;;;;;;4590882;19;20010;-36
2023/01/20 09:44:54;;;;;;;34.67;26.73;;;12.30;95.20;;;;;;4591982;19;20014;-37
2023/01/20 09:46:39;;;;;;;36.20;27.47;;;12.20;95.20;;;;;;4592330;19;20021;-37
2023/01/20 09:54:12;;;;;;;36.50;26.37;;;12.20;95.10;;;;;;4590571;19;20011;-33
2023/01/20 09:55:57;;;;;;;33.70;26.43;;;12.30;95.10;;;;;;4590723;19;20014;-34
2023/01/20 09:57:31;;;;;;;34.57;25.13;;;12.20;95.20;;;;;;4592780;19;20018;-36
2023/01/20 10:02:27;;;;;;;31.90;24.53;;;12.30;95.50;;;;;;4594389;19;20485;-33
2023/01/20 10:04:11;;;;;;;31.17;22.53;;;12.30;95.40;;;;;;4591201;19;20010;-35
2023/01/20 10:05:43;;;;;;;31.73;23.50;;;12.30;95.30;;;;;;4590990;19;20468;-35
2023/01/20 10:07:23;;;;;;;30.73;24.42;;;12.30;95.40;;;;;;4589100;19;20022;-33
2023/01/20 10:09:03;;;;;;;33.07;25.93;;;12.30;95.30;;;;;;4589861;19;20018;-33
2023/01/20 10:10:51;;;;;;;32.90;24.93;;;12.30;95.30;;;;;;4589476;19;20009;-37
2023/01/20 10:12:39;;;;;;;34.77;25.27;;;12.30;95.50;;;;;;4591645;19;20434;-32
2023/01/20 10:14:14;;;;;;;38.50;31.60;;;12.20;95.50;;;;;;4590487;19;20428;-33
2023/01/20 10:15:52;;;;;;;30.23;24.00;;;12.30;95.50;;;;;;4591215;19;20346;-33
2023/01/20 10:17:32;;;;;;;30.23;23.03;;;12.30;95.50;;;;;;4588290;19;20014;-33
2023/01/20 10:19:16;;;;;;;90.10;51.80;;;12.20;95.40;;;;;;4590610;19;20120;-33
2023/01/20 10:21:10;;;;;;;57.80;35.63;;;12.20;95.20;;;;;;4590495;19;20515;-35
2023/01/20 10:23:05;;;;;;;35.07;25.07;;;12.20;95.20;;;;;;4589721;19;20035;-32
2023/01/20 10:24:41;;;;;;;29.07;21.67;;;12.20;95.20;;;;;;4589705;19;20018;-34
2023/01/20 10:26:41;;;;;;;27.40;21.27;;;12.20;95.20;;;;;;4591434;19;20028;-36
2023/01/20 10:28:17;;;;;;;30.40;22.27;;;12.20;95.10;;;;;;4588827;19;20078;-32
2023/01/20 10:29:55;;;;;;;95.73;54.17;;;12.20;95.20;;;;;;4590021;19;20015;-32
2023/01/20 10:31:29;;;;;;;44.77;29.40;;;12.20;95.30;;;;;;4591781;19;20014;-33
2023/01/20 10:33:11;;;;;;;61.87;38.20;;;12.20;95.20;;;;;;4589233;19;20015;-33
2023/01/20 10:34:46;;;;;;;51.58;32.65;;;12.30;95.20;;;;;;4590903;19;20024;-34
2023/01/20 10:36:35;;;;;;;61.57;40.53;;;12.20;95.00;;;;;;4589807;19;20420;-34
2023/01/20 10:38:08;;;;;;;53.53;35.13;;;12.20;95.00;;;;;;4590114;19;21118;-34
2023/01/20 10:39:45;;;;;;;62.53;43.10;;;12.20;95.10;;;;;;4591521;19;20021;-33
2023/01/20 10:41:31;;;;;;;38.47;28.00;;;12.20;95.20;;;;;;4589355;19;20019;-32
2023/01/20 10:43:12;;;;;;;43.40;30.27;;;12.20;95.00;;;;;;4589808;19;20014;-32
2023/01/20 10:44:43;;;;;;;40.00;29.53;;;12.20;94.90;;;;;;4589656;19;20022;-33
2023/01/20 10:46:21;;;;;;;32.67;26.57;;;12.20;95.20;;;;;;4590929;19;20366;-34
2023/01/20 10:48:10;;;;;;;32.80;26.07;;;12.20;95.00;;;;;;4591173;19;20039;-33
2023/01/20 10:50:22;;;;;;;36.97;29.47;;;12.20;94.80;;;;;;4590406;19;20020;-34
2023/01/20 10:52:15;;;;;;;30.43;21.80;;;12.20;94.90;;;;;;4588037;19;20122;-33
2023/01/20 10:54:04;;;;;;;24.87;20.17;;;12.20;95.00;;;;;;4588129;19;20012;-36
2023/01/20 10:55:52;;;;;;;24.53;19.03;;;12.20;94.90;;;;;;4588457;19;20035;-31
2023/01/20 10:57:24;;;;;;;28.37;21.07;;;12.20;94.90;;;;;;4588091;19;20444;-33
2023/01/20 10:58:56;;;;;;;28.63;21.90;;;12.20;94.90;;;;;;4588727;19;20021;-33
2023/01/20 11:00:29;;;;;;;28.13;21.30;;;12.20;95.00;;;;;;4590236;19;20018;-33
2023/01/20 11:05:48;;;;;;;44.63;30.27;;;12.20;95.30;;;;;;4588967;19;20038;-33
2023/01/20 11:07:19;;;;;;;54.47;36.77;;;12.20;95.30;;;;;;4591730;19;20031;-32
2023/01/20 11:08:52;;;;;;;69.37;45.13;;;12.30;95.40;;;;;;4589620;19;20006;-34
2023/01/20 11:10:26;;;;;;;52.87;36.17;;;12.20;95.40;;;;;;4590025;19;20310;-36
2023/01/20 11:11:59;;;;;;;38.17;27.80;;;12.20;95.40;;;;;;4589322;19;20042;-33
2023/01/20 11:13:31;;;;;;;44.97;30.97;;;12.30;95.30;;;;;;4589974;19;20404;-33
2023/01/20 11:15:06;;;;;;;55.42;36.85;;;12.20;95.40;;;;;;4589066;19;20385;-33
2023/01/20 11:16:39;;;;;;;64.67;43.80;;;12.20;95.60;;;;;;4589502;19;20030;-33
2023/01/20 11:18:14;;;;;;;59.63;38.83;;;12.30;95.40;;;;;;4587620;19;20006;-32
2023/01/20 11:19:55;;;;;;;41.77;30.00;;;12.30;95.30;;;;;;4589288;19;20007;-32
2023/01/20 11:21:29;;;;;;;43.73;37.80;;;12.30;95.20;;;;;;4588626;19;20015;-32
2023/01/20 11:23:00;;;;;;;32.13;26.20;;;12.20;95.00;;;;;;4588534;19;20506;-34
2023/01/20 11:24:34;;;;;;;32.78;23.95;;;12.20;95.10;;;;;;4589658;19;20380;-32
2023/01/20 11:26:08;;;;;;;28.10;21.80;;;12.20;95.10;;;;;;4591183;19;20021;-31
2023/01/20 11:27:41;;;;;;;27.90;20.87;;;12.30;95.10;;;;;;4589014;19;20036;-33
2023/01/20 11:29:12;;;;;;;28.43;21.03;;;12.30;95.00;;;;;;4590038;19;20038;-35
2023/01/20 11:30:45;;;;;;;;;;;12.30;95.00;;;;;;4591299;19;20029;-33
2023/01/20 11:32:30;;;;;;;28.70;20.77;;;12.40;94.90;;;;;;4588933;19;19953;-32
2023/01/20 11:34:21;;;;;;;30.63;23.10;;;12.50;94.70;;;;;;4588967;19;20022;-33
2023/01/20 11:36:04;;;;;;;31.60;23.67;;;12.50;94.50;;;;;;4590850;19;20017;-33
2023/01/20 11:37:39;;;;;;;27.00;19.73;;;12.50;94.50;;;;;;4590153;19;20015;-33
2023/01/20 11:39:33;;;;;;;24.20;19.37;;;12.60;94.50;;;;;;4588818;19;20401;-33
2023/01/20 11:41:06;;;;;;;26.97;20.17;;;12.60;94.50;;;;;;4591149;19;20015;-33
2023/01/20 11:42:42;;;;;;;28.27;21.93;;;12.70;94.50;;;;;;4589724;19;20022;-33
2023/01/20 11:44:19;;;;;;;30.27;23.17;;;12.70;94.50;;;;;;4589515;19;20364;-35
2023/01/20 11:45:50;;;;;;;31.87;22.20;;;12.70;94.50;;;;;;4587088;19;20014;-33
2023/01/20 11:47:33;;;;;;;31.37;22.73;;;12.80;94.40;;;;;;4588395;19;20021;-33
2023/01/20 11:49:17;;;;;;;33.90;25.95;;;12.80;94.40;;;;;;4589039;19;20022;-32
2023/01/20 11:50:49;;;;;;;44.93;31.40;;;12.70;94.40;;;;;;4590056;19;20071;-32
2023/01/20 11:52:20;;;;;;;68.63;42.13;;;12.70;94.30;;;;;;4588388;19;20022;-34
2023/01/20 11:54:05;;;;;;;50.72;33.70;;;12.70;94.40;;;;;;4588402;19;20371;-32
2023/01/20 11:56:04;;;;;;;42.00;29.33;;;12.70;94.40;;;;;;4587751;19;20053;-33
2023/01/20 11:57:43;;;;;;;35.27;25.23;;;12.70;94.50;;;;;;4588755;19;20014;-35
2023/01/20 11:59:20;;;;;;;38.03;26.10;;;12.60;94.40;;;;;;4588556;19;20010;-33
2023/01/20 12:01:01;;;;;;;32.03;23.67;;;12.60;94.50;;;;;;4589841;19;20014;-34
2023/01/20 12:02:32;;;;;;;32.00;23.40;;;12.60;94.50;;;;;;4587426;19;20439;-36
2023/01/20 12:04:16;;;;;;;27.88;21.60;;;12.60;94.60;;;;;;4587575;19;20021;-32
2023/01/20 12:11:05;;;;;;;29.07;21.47;;;12.50;94.40;;;;;;4586235;19;20355;-36
2023/01/20 12:12:56;;;;;;;31.33;22.40;;;12.50;94.50;;;;;;4588863;19;20029;-35
2023/01/20 12:14:39;;;;;;;34.77;25.30;;;12.50;94.60;;;;;;4589597;19;20124;-32
2023/01/20 12:16:10;;;;;;;42.23;28.03;;;12.50;94.60;;;;;;4589326;19;20349;-32
2023/01/20 12:17:47;;;;;;;42.95;27.70;;;12.50;94.60;;;;;;4586753;19;20481;-34
2023/01/20 12:19:19;;;;;;;43.93;27.50;;;12.50;94.60;;;;;;4588757;19;20007;-32
2023/01/20 12:20:57;;;;;;;35.17;24.40;;;12.50;94.70;;;;;;4587170;19;20076;-29
2023/01/20 12:22:40;;;;;;;29.43;22.83;;;12.50;94.70;;;;;;4587404;19;20014;-34
2023/01/20 12:25:06;;;;;;;27.47;21.97;;;12.40;94.70;;;;;;4585729;19;20111;-31
2023/01/20 12:26:27;;;;;;;28.03;20.40;;;12.50;94.70;;;;;;4587447;19;20023;-34
2023/01/20 12:28:19;;;;;;;28.90;22.13;;;12.50;94.50;;;;;;4589243;19;20014;-33
2023/01/20 12:29:54;;;;;;;30.93;23.97;;;12.50;94.50;;;;;;4588893;19;20013;-36
2023/01/20 12:31:25;;;;;;;30.67;22.30;;;12.50;94.50;;;;;;4588758;19;20034;-35
2023/01/20 12:32:57;;;;;;;27.80;21.58;;;12.50;94.40;;;;;;4586388;19;20086;-32
2023/01/20 12:34:29;;;;;;;34.88;26.77;;;12.40;94.40;;;;;;4589323;19;20046;-35
2023/01/20 12:36:23;;;;;;;28.93;22.57;;;12.40;94.50;;;;;;4588382;19;20011;-35
2023/01/20 12:38:21;;;;;;;28.30;21.40;;;12.40;94.60;;;;;;4587135;19;20011;-32
2023/01/20 12:40:10;;;;;;;28.07;21.13;;;12.40;94.70;;;;;;4586779;19;20022;-33
2023/01/20 12:41:56;;;;;;;31.77;22.63;;;12.40;94.70;;;;;;4591545;19;20006;-34
2023/01/20 12:43:31;;;;;;;27.80;22.20;;;12.40;94.60;;;;;;4593203;19;20019;-32
2023/01/20 12:45:43;;;;;;;24.63;18.80;;;12.40;94.60;;;;;;4592369;19;20014;-33
2023/01/20 12:47:32;;;;;;;32.47;23.87;;;12.40;94.50;;;;;;4591415;19;20019;-33
2023/01/20 12:49:37;;;;;;;36.23;31.57;;;12.40;94.50;;;;;;4593932;19;20015;-35
2023/01/20 12:51:08;;;;;;;32.53;27.33;;;12.40;94.60;;;;;;4591285;19;20006;-34
2023/01/20 12:53:16;;;;;;;32.10;25.77;;;12.40;94.60;;;;;;4592759;19;20038;-33
2023/01/20 12:55:16;;;;;;;34.60;28.13;;;12.40;94.70;;;;;;4592549;19;20014;-32
2023/01/20 12:57:20;;;;;;;36.63;27.03;;;12.40;94.80;;;;;;4592708;19;20026;-32
2023/01/20 12:58:56;;;;;;;35.53;28.10;;;12.40;94.80;;;;;;4591200;19;20007;-35
2023/01/20 13:00:37;;;;;;;38.33;30.53;;;12.40;94.80;;;;;;4591078;19;20019;-36
2023/01/20 13:02:21;;;;;;;36.80;28.83;;;12.40;94.80;;;;;;4591301;19;20078;-36
2023/01/20 13:04:20;;;;;;;42.10;32.87;;;12.40;94.80;;;;;;4592819;19;20010;-32
2023/01/20 13:06:13;;;;;;;34.93;26.50;;;12.30;94.80;;;;;;4592423;19;20082;-34
2023/01/20 16:26:14;;;;;;;47.73;35.93;;;12.20;93.60;;;;;;4590349;19;20103;-32
2023/01/20 16:27:45;;;;;;;46.03;33.63;;;12.10;93.70;;;;;;4593281;19;20445;-32
2023/01/20 16:29:16;;;;;;;46.15;34.55;;;12.10;93.60;;;;;;4595401;19;20432;-32
2023/01/20 16:30:52;;;;;;;49.20;34.97;;;12.20;93.80;;;;;;4593289;19;20013;-32
2023/01/20 16:32:26;;;;;;;44.67;33.57;;;12.20;93.70;;;;;;4594744;19;20501;-32
2023/01/20 16:33:58;;;;;;;40.47;30.77;;;12.20;93.70;;;;;;4595955;19;20468;-32
2023/01/20 16:35:51;;;;;;;42.58;31.42;;;12.20;93.70;;;;;;4595420;19;20019;-32
2023/01/20 16:37:23;;;;;;;39.73;29.80;;;12.20;93.70;;;;;;4594820;19;20021;-32
2023/01/20 16:38:55;;;;;;;46.35;31.00;;;12.20;93.70;;;;;;4593619;19;20465;-32
2023/01/20 16:40:26;;;;;;;41.20;30.17;;;12.20;93.80;;;;;;4594082;19;20013;-32
2023/01/20 16:41:58;;;;;;;40.07;29.23;;;12.30;93.70;;;;;;4594230;19;20349;-32
2023/01/20 16:43:32;;;;;;;39.83;29.07;;;12.20;93.70;;;;;;4593493;19;20492;-32
2023/01/20 16:45:08;;;;;;;41.47;29.70;;;12.20;93.70;;;;;;4592882;19;20487;-33
2023/01/20 16:46:39;;;;;;;41.23;29.40;;;12.20;93.70;;;;;;4593075;19;20078;-32
2023/01/20 16:48:11;;;;;;;37.25;27.63;;;12.20;93.60;;;;;;4595270;19;20468;-32